UPSVAC Airport Information Service

Tokyo Narita International Airport

ICAO: RJAA Country: Japan
Latitude: 35.7647 Longitude: 140.386
Latest Arrival : UPSJUMP (KSDF-RJAA) Latest Departure : UPSJUMP (RJAA-KSAN)


WX CaptureLIVE
Data provided by noaa.gov | Fetched at 09:52:34

METAR : RJAA 010930Z 17007KT 9999 FEW030 BKN/// 14/08 Q1021 NOSIG RMK 1CU030 A3017

TAF : RJAA 010506Z 0106/0212 16012KT 9999 FEW020 SCT040 BECMG 0121/0200 20020G33KT TEMPO 0200/0206 4000 BLDU BECMG 0206/0209 33020KT TEMPO 0206/0209 33022G34KT 3000 SHRA BR FEW005 BKN008


Runway Data for RJAA
Data provided by openaviationdata.com

Runway ID Mag Var Hdg Length Elevation Surface ILS Freq ILS Id ILS Slope
16L -7 156° 8202 ft 135 ft Asphalt 110.7 ITM 3
16R -7 156° 13132 ft 135 ft Asphalt 111.5 IKF 3
34L -7 336° 13132 ft 135 ft Asphalt 111.9 IYQ 3
34R -7 336° 8202 ft 135 ft Asphalt 110.9 ITJ 3

Tokyo Narita International Airport, Japan
Use only for reference purposes



Not for navigational purposes.